Airport View

Enter AWOS ICAO identifier for current METAR.

ex. KFNL

KCJR 300440Z AUTO 02006KT 10SM OVC012 11/10 A2961 RMK AO2 T01110100

30 Oct 2020 04:40

Frequency: 119.325

Phone: 540-727-0523

Other Area AWOS: KHWY - KOMH - KHEF - KRMN

TAF KNYG 3003/3103 36010KT 7SM/NSW FEW014 BKN020 OVC029 QNH2962INS TEMPO 3003/3009 4800 -RA BR BKN010 OVC020 FM301100 34012KT 9999 OVC010 QNH2969INS TEMPO 3015/3020 33015G25KT T10/3013Z T12/3021Z